SXKRL LGSA-LGSA
Flight info
| Callsign | SXKRL |
|---|---|
| Flight time | N/A |
| Altitude | 2500 |
| Route | DCT |
| Aircraft | PA24/L-SDGRY/S |
Departure
| Time | 2026-05-08 17:51 |
|---|---|
| Airport | Chania International Airport (LGSA) |
Arrival
| Time | N/A |
|---|---|
| Airport | Chania International Airport (LGSA) |
| Time | Latitude | Longitude | Altitude | Speed | Heading |
|---|---|---|---|---|---|
| 2026-05-08 17:39 | 35.53726 | 24.14498 | 493 ft | 0 kts | 258° |
| 2026-05-08 17:47 | 35.53725 | 24.14495 | 493 ft | 3 kts | 260° |
| 2026-05-08 17:47 | 35.53715 | 24.14464 | 489 ft | 5 kts | 236° |
| 2026-05-08 17:47 | 35.53686 | 24.14418 | 492 ft | 8 kts | 234° |
| 2026-05-08 17:47 | 35.53667 | 24.14377 | 491 ft | 9 kts | 231° |
| 2026-05-08 17:48 | 35.53583 | 24.14328 | 492 ft | 11 kts | 228° |
| 2026-05-08 17:48 | 35.53596 | 24.14234 | 488 ft | 13 kts | 289° |
| 2026-05-08 17:48 | 35.53631 | 24.14128 | 491 ft | 14 kts | 291° |
| 2026-05-08 17:48 | 35.53671 | 24.14006 | 490 ft | 16 kts | 292° |
| 2026-05-08 17:49 | 35.53716 | 24.13867 | 489 ft | 19 kts | 292° |
| 2026-05-08 17:49 | 35.53766 | 24.13713 | 493 ft | 20 kts | 291° |
| 2026-05-08 17:49 | 35.53820 | 24.13546 | 492 ft | 20 kts | 287° |
| 2026-05-08 17:49 | 35.53775 | 24.13486 | 493 ft | 10 kts | 201° |
| 2026-05-08 17:50 | 35.53705 | 24.13452 | 492 ft | 12 kts | 199° |
| 2026-05-08 17:50 | 35.53648 | 24.13504 | 490 ft | 19 kts | 114° |
| 2026-05-08 17:50 | 35.53538 | 24.13850 | 496 ft | 67 kts | 114° |
| 2026-05-08 17:50 | 35.53337 | 24.14471 | 637 ft | 84 kts | 115° |
| 2026-05-08 17:51 | 35.53115 | 24.15164 | 838 ft | 88 kts | 115° |
| 2026-05-08 17:51 | 35.52875 | 24.15840 | 1068 ft | 88 kts | 119° |
| 2026-05-08 17:51 | 35.52612 | 24.16552 | 1291 ft | 94 kts | 118° |
| 2026-05-08 17:51 | 35.52353 | 24.17314 | 1502 ft | 101 kts | 115° |
| 2026-05-08 17:52 | 35.52389 | 24.18244 | 1622 ft | 122 kts | 74° |
| 2026-05-08 17:52 | 35.52869 | 24.19084 | 1941 ft | 119 kts | 46° |
| 2026-05-08 17:52 | 35.54508 | 24.19380 | 2309 ft | 133 kts | 336° |
| 2026-05-08 17:53 | 35.55267 | 24.18695 | 2359 ft | 140 kts | 306° |
| 2026-05-08 17:53 | 35.55818 | 24.17698 | 2442 ft | 141 kts | 297° |
| 2026-05-08 17:53 | 35.56258 | 24.16645 | 2332 ft | 141 kts | 287° |
| 2026-05-08 17:53 | 35.56629 | 24.15506 | 2337 ft | 146 kts | 289° |
| 2026-05-08 17:54 | 35.57002 | 24.14305 | 2290 ft | 152 kts | 287° |
| 2026-05-08 17:54 | 35.57357 | 24.13094 | 2370 ft | 150 kts | 287° |
| 2026-05-08 17:54 | 35.57704 | 24.11882 | 2400 ft | 153 kts | 286° |
| 2026-05-08 17:54 | 35.57947 | 24.10669 | 2153 ft | 134 kts | 262° |
| 2026-05-08 17:55 | 35.57612 | 24.09759 | 1875 ft | 108 kts | 223° |
| 2026-05-08 17:55 | 35.56979 | 24.09329 | 1659 ft | 104 kts | 187° |
| 2026-05-08 17:55 | 35.56300 | 24.09458 | 1537 ft | 98 kts | 155° |
| 2026-05-08 17:55 | 35.55735 | 24.09923 | 1443 ft | 97 kts | 148° |
| 2026-05-08 17:56 | 35.55219 | 24.10368 | 1276 ft | 88 kts | 147° |
| 2026-05-08 17:56 | 35.54758 | 24.10854 | 1102 ft | 89 kts | 137° |
| 2026-05-08 17:56 | 35.54376 | 24.11430 | 913 ft | 88 kts | 125° |
| 2026-05-08 17:56 | 35.54108 | 24.12080 | 722 ft | 80 kts | 112° |
| 2026-05-08 17:57 | 35.53917 | 24.12694 | 612 ft | 75 kts | 111° |
| 2026-05-08 17:57 | 35.53725 | 24.13277 | 523 ft | 72 kts | 112° |
| 2026-05-08 17:57 | 35.53546 | 24.13817 | 485 ft | 60 kts | 110° |
| 2026-05-08 17:57 | 35.53404 | 24.14257 | 489 ft | 61 kts | 114° |
| 2026-05-08 17:58 | 35.53201 | 24.14872 | 585 ft | 86 kts | 112° |
| 2026-05-08 17:58 | 35.52972 | 24.15552 | 810 ft | 90 kts | 113° |
| 2026-05-08 17:58 | 35.52734 | 24.16266 | 1042 ft | 91 kts | 116° |
| 2026-05-08 17:58 | 35.52505 | 24.16993 | 1284 ft | 90 kts | 114° |
| 2026-05-08 17:59 | 35.52290 | 24.17706 | 1554 ft | 89 kts | 114° |
| 2026-05-08 17:59 | 35.52095 | 24.18470 | 1745 ft | 100 kts | 113° |
| 2026-05-08 17:59 | 35.52151 | 24.19254 | 2108 ft | 97 kts | 48° |
| 2026-05-08 17:59 | 35.52717 | 24.19246 | 2384 ft | 88 kts | 301° |
| 2026-05-08 18:00 | 35.52586 | 24.18691 | 2600 ft | 72 kts | 201° |
| 2026-05-08 18:00 | 35.52070 | 24.17737 | 3029 ft | 68 kts | 242° |
| 2026-05-08 18:00 | 35.51888 | 24.17191 | 3183 ft | 73 kts | 242° |
| 2026-05-08 18:01 | 35.51676 | 24.16578 | 3305 ft | 83 kts | 242° |
| 2026-05-08 18:01 | 35.51426 | 24.15893 | 3444 ft | 92 kts | 242° |
| 2026-05-08 18:01 | 35.51133 | 24.15161 | 3592 ft | 98 kts | 238° |
| 2026-05-08 18:01 | 35.50749 | 24.14442 | 3737 ft | 104 kts | 232° |
| 2026-05-08 18:02 | 35.50301 | 24.13720 | 3867 ft | 108 kts | 232° |
| 2026-05-08 18:02 | 35.50012 | 24.13219 | 3963 ft | 110 kts | 237° |
| 2026-05-08 18:02 | 35.49448 | 24.12153 | 4136 ft | 113 kts | 237° |
| 2026-05-08 18:02 | 35.49018 | 24.11346 | 4265 ft | 113 kts | 237° |
| 2026-05-08 18:03 | 35.48582 | 24.10548 | 4414 ft | 112 kts | 237° |
| 2026-05-08 18:03 | 35.48149 | 24.09759 | 4555 ft | 111 kts | 237° |
| 2026-05-08 18:03 | 35.47720 | 24.08981 | 4702 ft | 109 kts | 237° |
| 2026-05-08 18:03 | 35.47290 | 24.08232 | 4848 ft | 106 kts | 237° |
| 2026-05-08 18:04 | 35.46860 | 24.07500 | 4990 ft | 106 kts | 237° |
| 2026-05-08 18:04 | 35.46421 | 24.06769 | 5140 ft | 107 kts | 237° |
| 2026-05-08 18:04 | 35.45979 | 24.06047 | 5297 ft | 105 kts | 237° |
| 2026-05-08 18:04 | 35.45553 | 24.05325 | 5457 ft | 104 kts | 237° |
| 2026-05-08 18:05 | 35.45140 | 24.04632 | 5622 ft | 96 kts | 236° |
| 2026-05-08 18:05 | 35.44743 | 24.04009 | 5792 ft | 90 kts | 237° |
| 2026-05-08 18:05 | 35.44362 | 24.03426 | 5950 ft | 86 kts | 236° |
| 2026-05-08 18:05 | 35.43995 | 24.02845 | 6117 ft | 86 kts | 237° |
| 2026-05-08 18:06 | 35.43617 | 24.02286 | 6289 ft | 83 kts | 236° |
| 2026-05-08 18:06 | 35.43249 | 24.01760 | 6452 ft | 79 kts | 236° |
| 2026-05-08 18:06 | 35.42903 | 24.01276 | 6607 ft | 73 kts | 236° |
| 2026-05-08 18:06 | 35.42577 | 24.00811 | 6757 ft | 71 kts | 236° |
| 2026-05-08 18:07 | 35.42261 | 24.00354 | 6908 ft | 68 kts | 236° |
| 2026-05-08 18:07 | 35.41941 | 23.99905 | 6983 ft | 75 kts | 236° |
| 2026-05-08 18:07 | 35.41582 | 23.99398 | 7043 ft | 82 kts | 236° |
| 2026-05-08 18:07 | 35.41188 | 23.98838 | 7058 ft | 93 kts | 236° |
| 2026-05-08 18:08 | 35.40761 | 23.98210 | 7152 ft | 94 kts | 236° |
| 2026-05-08 18:08 | 35.40355 | 23.97628 | 7306 ft | 88 kts | 236° |
| 2026-05-08 18:08 | 35.39953 | 23.97061 | 7450 ft | 88 kts | 236° |
| 2026-05-08 18:08 | 35.39553 | 23.96506 | 7594 ft | 86 kts | 236° |
| 2026-05-08 18:09 | 35.39161 | 23.95987 | 7720 ft | 81 kts | 236° |
| 2026-05-08 18:09 | 35.38777 | 23.95505 | 7829 ft | 79 kts | 239° |
| 2026-05-08 18:09 | 35.38384 | 23.95096 | 7930 ft | 70 kts | 230° |
| 2026-05-08 18:09 | 35.38028 | 23.94655 | 8031 ft | 76 kts | 237° |
| 2026-05-08 18:10 | 35.37660 | 23.94193 | 8127 ft | 80 kts | 235° |
| 2026-05-08 18:10 | 35.37249 | 23.93677 | 8258 ft | 90 kts | 235° |
| 2026-05-08 18:10 | 35.36815 | 23.93117 | 8372 ft | 90 kts | 236° |
| 2026-05-08 18:10 | 35.36396 | 23.92571 | 8481 ft | 86 kts | 234° |
| 2026-05-08 18:11 | 35.36019 | 23.92058 | 8563 ft | 76 kts | 235° |
| 2026-05-08 18:11 | 35.35665 | 23.91627 | 8644 ft | 70 kts | 236° |
| 2026-05-08 18:11 | 35.35310 | 23.91249 | 8720 ft | 66 kts | 236° |
| 2026-05-08 18:11 | 35.34967 | 23.90917 | 8802 ft | 59 kts | 235° |
| 2026-05-08 18:12 | 35.34662 | 23.90624 | 8873 ft | 52 kts | 235° |
| 2026-05-08 18:12 | 35.34397 | 23.90377 | 8926 ft | 45 kts | 235° |
| 2026-05-08 18:12 | 35.34093 | 23.90074 | 8726 ft | 74 kts | 235° |